sensor_id;sensor_type;location;lat;lon;timestamp;P1;durP1;ratioP1;P2;durP2;ratioP2
52668;SDS011;74205;52.786;6.892;2023-12-20T00:00:16;11.93;;;3.53;;
52668;SDS011;74205;52.786;6.892;2023-12-20T00:03:36;7.78;;;3.40;;
52668;SDS011;74205;52.786;6.892;2023-12-20T00:06:57;7.57;;;3.58;;
52668;SDS011;74205;52.786;6.892;2023-12-20T00:10:17;11.48;;;4.53;;
52668;SDS011;74205;52.786;6.892;2023-12-20T00:13:38;11.45;;;3.95;;
52668;SDS011;74205;52.786;6.892;2023-12-20T00:16:58;10.90;;;3.58;;
52668;SDS011;74205;52.786;6.892;2023-12-20T00:20:19;15.55;;;3.85;;
52668;SDS011;74205;52.786;6.892;2023-12-20T00:23:40;10.90;;;4.05;;
52668;SDS011;74205;52.786;6.892;2023-12-20T00:27:00;15.90;;;7.30;;
52668;SDS011;74205;52.786;6.892;2023-12-20T00:30:21;10.93;;;4.40;;
52668;SDS011;74205;52.786;6.892;2023-12-20T00:33:41;12.48;;;3.95;;
52668;SDS011;74205;52.786;6.892;2023-12-20T00:37:03;15.27;;;4.13;;
52668;SDS011;74205;52.786;6.892;2023-12-20T00:40:24;8.52;;;3.38;;
52668;SDS011;74205;52.786;6.892;2023-12-20T00:43:44;14.80;;;4.35;;
52668;SDS011;74205;52.786;6.892;2023-12-20T00:47:05;15.18;;;4.85;;
52668;SDS011;74205;52.786;6.892;2023-12-20T00:50:26;17.75;;;3.97;;
52668;SDS011;74205;52.786;6.892;2023-12-20T00:53:46;11.70;;;3.75;;
52668;SDS011;74205;52.786;6.892;2023-12-20T00:57:09;13.50;;;4.50;;
52668;SDS011;74205;52.786;6.892;2023-12-20T01:00:30;14.35;;;3.50;;
52668;SDS011;74205;52.786;6.892;2023-12-20T01:03:50;12.55;;;3.90;;
52668;SDS011;74205;52.786;6.892;2023-12-20T01:07:11;10.60;;;3.80;;
52668;SDS011;74205;52.786;6.892;2023-12-20T01:10:32;12.70;;;4.85;;
52668;SDS011;74205;52.786;6.892;2023-12-20T01:13:53;13.85;;;4.35;;
52668;SDS011;74205;52.786;6.892;2023-12-20T01:17:13;12.18;;;3.85;;
52668;SDS011;74205;52.786;6.892;2023-12-20T01:20:34;16.83;;;4.55;;
52668;SDS011;74205;52.786;6.892;2023-12-20T01:23:54;9.63;;;3.85;;
52668;SDS011;74205;52.786;6.892;2023-12-20T01:27:15;11.70;;;3.97;;
52668;SDS011;74205;52.786;6.892;2023-12-20T01:30:35;10.25;;;3.95;;
52668;SDS011;74205;52.786;6.892;2023-12-20T01:33:56;12.77;;;3.88;;
52668;SDS011;74205;52.786;6.892;2023-12-20T01:37:17;21.23;;;4.63;;
52668;SDS011;74205;52.786;6.892;2023-12-20T01:40:37;17.70;;;4.80;;
52668;SDS011;74205;52.786;6.892;2023-12-20T01:43:58;15.45;;;3.75;;
52668;SDS011;74205;52.786;6.892;2023-12-20T01:47:18;13.27;;;4.07;;
52668;SDS011;74205;52.786;6.892;2023-12-20T01:50:39;23.83;;;4.50;;
52668;SDS011;74205;52.786;6.892;2023-12-20T01:54:00;22.05;;;5.40;;
52668;SDS011;74205;52.786;6.892;2023-12-20T01:57:21;15.13;;;5.03;;
52668;SDS011;74205;52.786;6.892;2023-12-20T02:00:42;15.63;;;4.95;;
52668;SDS011;74205;52.786;6.892;2023-12-20T02:04:03;16.90;;;4.15;;
52668;SDS011;74205;52.786;6.892;2023-12-20T02:07:24;14.90;;;4.63;;
52668;SDS011;74205;52.786;6.892;2023-12-20T02:10:45;13.25;;;4.28;;
52668;SDS011;74205;52.786;6.892;2023-12-20T02:14:05;20.95;;;4.72;;
52668;SDS011;74205;52.786;6.892;2023-12-20T02:17:26;10.85;;;4.20;;
52668;SDS011;74205;52.786;6.892;2023-12-20T02:20:47;19.10;;;5.22;;
52668;SDS011;74205;52.786;6.892;2023-12-20T02:24:08;12.63;;;4.15;;
52668;SDS011;74205;52.786;6.892;2023-12-20T02:27:28;17.85;;;5.35;;
52668;SDS011;74205;52.786;6.892;2023-12-20T02:30:50;11.00;;;5.05;;
52668;SDS011;74205;52.786;6.892;2023-12-20T02:34:10;11.60;;;5.03;;
52668;SDS011;74205;52.786;6.892;2023-12-20T02:37:32;14.63;;;4.60;;
52668;SDS011;74205;52.786;6.892;2023-12-20T02:40:53;14.80;;;5.53;;
52668;SDS011;74205;52.786;6.892;2023-12-20T02:44:13;13.43;;;5.55;;
52668;SDS011;74205;52.786;6.892;2023-12-20T02:47:34;14.40;;;5.40;;
52668;SDS011;74205;52.786;6.892;2023-12-20T02:50:54;16.67;;;5.22;;
52668;SDS011;74205;52.786;6.892;2023-12-20T02:54:15;12.45;;;4.90;;
52668;SDS011;74205;52.786;6.892;2023-12-20T02:57:36;18.45;;;5.45;;
52668;SDS011;74205;52.786;6.892;2023-12-20T03:00:56;16.38;;;5.53;;
52668;SDS011;74205;52.786;6.892;2023-12-20T03:04:17;17.70;;;5.20;;
52668;SDS011;74205;52.786;6.892;2023-12-20T03:07:37;14.05;;;4.97;;
52668;SDS011;74205;52.786;6.892;2023-12-20T03:10:59;11.98;;;5.45;;
52668;SDS011;74205;52.786;6.892;2023-12-20T03:14:19;15.27;;;5.47;;
52668;SDS011;74205;52.786;6.892;2023-12-20T03:17:40;15.52;;;5.28;;
52668;SDS011;74205;52.786;6.892;2023-12-20T03:21:00;20.77;;;5.90;;
52668;SDS011;74205;52.786;6.892;2023-12-20T03:24:21;15.10;;;4.78;;
52668;SDS011;74205;52.786;6.892;2023-12-20T03:27:41;13.38;;;4.57;;
52668;SDS011;74205;52.786;6.892;2023-12-20T03:31:02;18.85;;;6.03;;
52668;SDS011;74205;52.786;6.892;2023-12-20T03:34:23;14.90;;;4.60;;
52668;SDS011;74205;52.786;6.892;2023-12-20T03:37:43;13.05;;;4.82;;
52668;SDS011;74205;52.786;6.892;2023-12-20T03:41:04;15.98;;;6.13;;
52668;SDS011;74205;52.786;6.892;2023-12-20T03:44:24;18.20;;;6.82;;
52668;SDS011;74205;52.786;6.892;2023-12-20T03:47:45;14.50;;;5.25;;
52668;SDS011;74205;52.786;6.892;2023-12-20T03:51:05;19.67;;;7.47;;
52668;SDS011;74205;52.786;6.892;2023-12-20T03:54:26;19.85;;;7.25;;
52668;SDS011;74205;52.786;6.892;2023-12-20T03:57:47;17.73;;;6.75;;
52668;SDS011;74205;52.786;6.892;2023-12-20T04:01:10;24.83;;;6.55;;
52668;SDS011;74205;52.786;6.892;2023-12-20T04:04:32;23.45;;;8.20;;
52668;SDS011;74205;52.786;6.892;2023-12-20T04:07:52;27.13;;;6.97;;
52668;SDS011;74205;52.786;6.892;2023-12-20T04:11:13;19.13;;;6.00;;
52668;SDS011;74205;52.786;6.892;2023-12-20T04:14:34;26.90;;;8.20;;
52668;SDS011;74205;52.786;6.892;2023-12-20T04:17:54;22.52;;;6.97;;
52668;SDS011;74205;52.786;6.892;2023-12-20T04:21:15;21.75;;;8.02;;
52668;SDS011;74205;52.786;6.892;2023-12-20T04:24:35;23.90;;;7.60;;
52668;SDS011;74205;52.786;6.892;2023-12-20T04:27:56;21.23;;;7.13;;
52668;SDS011;74205;52.786;6.892;2023-12-20T04:31:16;16.55;;;7.13;;
52668;SDS011;74205;52.786;6.892;2023-12-20T04:34:37;18.88;;;6.65;;
52668;SDS011;74205;52.786;6.892;2023-12-20T04:37:58;16.77;;;6.13;;
52668;SDS011;74205;52.786;6.892;2023-12-20T04:41:19;18.02;;;6.38;;
52668;SDS011;74205;52.786;6.892;2023-12-20T04:44:40;19.10;;;5.80;;
52668;SDS011;74205;52.786;6.892;2023-12-20T04:48:01;26.23;;;7.25;;
52668;SDS011;74205;52.786;6.892;2023-12-20T04:51:22;24.67;;;7.70;;
52668;SDS011;74205;52.786;6.892;2023-12-20T04:54:42;23.50;;;7.32;;
52668;SDS011;74205;52.786;6.892;2023-12-20T04:58:03;18.48;;;6.45;;
52668;SDS011;74205;52.786;6.892;2023-12-20T05:01:24;27.17;;;7.03;;
52668;SDS011;74205;52.786;6.892;2023-12-20T05:04:44;22.98;;;5.55;;
52668;SDS011;74205;52.786;6.892;2023-12-20T05:08:05;25.63;;;6.30;;
52668;SDS011;74205;52.786;6.892;2023-12-20T05:11:26;25.65;;;6.65;;
52668;SDS011;74205;52.786;6.892;2023-12-20T05:14:46;24.25;;;5.90;;
52668;SDS011;74205;52.786;6.892;2023-12-20T05:18:07;21.40;;;6.65;;
52668;SDS011;74205;52.786;6.892;2023-12-20T05:21:27;17.45;;;5.90;;
52668;SDS011;74205;52.786;6.892;2023-12-20T05:24:48;21.48;;;6.85;;
52668;SDS011;74205;52.786;6.892;2023-12-20T05:28:09;19.23;;;5.97;;
52668;SDS011;74205;52.786;6.892;2023-12-20T05:31:29;25.73;;;7.35;;
52668;SDS011;74205;52.786;6.892;2023-12-20T05:34:50;22.92;;;8.77;;
52668;SDS011;74205;52.786;6.892;2023-12-20T05:38:11;36.13;;;9.15;;
52668;SDS011;74205;52.786;6.892;2023-12-20T05:41:32;19.38;;;6.50;;
52668;SDS011;74205;52.786;6.892;2023-12-20T05:44:52;24.40;;;7.40;;
52668;SDS011;74205;52.786;6.892;2023-12-20T05:48:13;21.98;;;8.13;;
52668;SDS011;74205;52.786;6.892;2023-12-20T05:51:33;18.13;;;6.72;;
52668;SDS011;74205;52.786;6.892;2023-12-20T05:54:54;20.17;;;8.45;;
52668;SDS011;74205;52.786;6.892;2023-12-20T05:58:15;22.77;;;6.43;;
52668;SDS011;74205;52.786;6.892;2023-12-20T06:01:36;26.50;;;7.30;;
52668;SDS011;74205;52.786;6.892;2023-12-20T06:04:57;27.55;;;7.88;;
52668;SDS011;74205;52.786;6.892;2023-12-20T06:08:17;21.75;;;6.38;;
52668;SDS011;74205;52.786;6.892;2023-12-20T06:11:38;27.95;;;8.25;;
52668;SDS011;74205;52.786;6.892;2023-12-20T06:14:58;25.52;;;7.45;;
52668;SDS011;74205;52.786;6.892;2023-12-20T06:18:19;23.42;;;7.93;;
52668;SDS011;74205;52.786;6.892;2023-12-20T06:21:40;25.30;;;7.50;;
52668;SDS011;74205;52.786;6.892;2023-12-20T06:25:00;23.73;;;7.70;;
52668;SDS011;74205;52.786;6.892;2023-12-20T06:28:22;23.95;;;7.65;;
52668;SDS011;74205;52.786;6.892;2023-12-20T06:31:43;23.00;;;6.13;;
52668;SDS011;74205;52.786;6.892;2023-12-20T06:35:04;23.48;;;7.43;;
52668;SDS011;74205;52.786;6.892;2023-12-20T06:38:25;18.45;;;7.43;;
52668;SDS011;74205;52.786;6.892;2023-12-20T06:41:45;21.13;;;7.68;;
52668;SDS011;74205;52.786;6.892;2023-12-20T06:45:06;15.90;;;6.55;;
52668;SDS011;74205;52.786;6.892;2023-12-20T06:48:27;22.67;;;6.15;;
52668;SDS011;74205;52.786;6.892;2023-12-20T06:51:47;19.45;;;6.15;;
52668;SDS011;74205;52.786;6.892;2023-12-20T06:55:08;33.88;;;7.38;;
52668;SDS011;74205;52.786;6.892;2023-12-20T06:58:28;21.20;;;6.15;;
52668;SDS011;74205;52.786;6.892;2023-12-20T07:01:49;17.77;;;5.63;;
52668;SDS011;74205;52.786;6.892;2023-12-20T07:05:10;20.90;;;5.95;;
52668;SDS011;74205;52.786;6.892;2023-12-20T07:08:30;23.20;;;5.85;;
52668;SDS011;74205;52.786;6.892;2023-12-20T07:11:51;30.83;;;6.65;;
52668;SDS011;74205;52.786;6.892;2023-12-20T07:15:12;19.42;;;6.53;;
52668;SDS011;74205;52.786;6.892;2023-12-20T07:18:32;24.13;;;6.30;;
52668;SDS011;74205;52.786;6.892;2023-12-20T07:21:53;23.42;;;6.78;;
52668;SDS011;74205;52.786;6.892;2023-12-20T07:25:14;21.70;;;6.03;;
52668;SDS011;74205;52.786;6.892;2023-12-20T07:28:34;19.65;;;5.45;;
52668;SDS011;74205;52.786;6.892;2023-12-20T07:31:55;14.43;;;4.95;;
52668;SDS011;74205;52.786;6.892;2023-12-20T07:35:16;32.22;;;8.73;;
52668;SDS011;74205;52.786;6.892;2023-12-20T07:38:36;24.88;;;9.13;;
52668;SDS011;74205;52.786;6.892;2023-12-20T07:41:57;25.23;;;6.43;;
52668;SDS011;74205;52.786;6.892;2023-12-20T07:45:17;26.45;;;6.25;;
52668;SDS011;74205;52.786;6.892;2023-12-20T07:48:38;13.13;;;5.13;;
52668;SDS011;74205;52.786;6.892;2023-12-20T07:51:59;14.65;;;6.60;;
52668;SDS011;74205;52.786;6.892;2023-12-20T07:55:19;45.55;;;6.55;;
52668;SDS011;74205;52.786;6.892;2023-12-20T07:58:40;18.48;;;5.45;;
52668;SDS011;74205;52.786;6.892;2023-12-20T08:02:00;25.67;;;6.65;;
52668;SDS011;74205;52.786;6.892;2023-12-20T08:05:21;22.42;;;7.18;;
52668;SDS011;74205;52.786;6.892;2023-12-20T08:08:42;16.90;;;6.53;;
52668;SDS011;74205;52.786;6.892;2023-12-20T08:12:02;24.67;;;5.90;;
52668;SDS011;74205;52.786;6.892;2023-12-20T08:15:23;16.92;;;6.90;;
52668;SDS011;74205;52.786;6.892;2023-12-20T08:18:44;21.42;;;6.60;;
52668;SDS011;74205;52.786;6.892;2023-12-20T08:22:05;18.08;;;5.65;;
52668;SDS011;74205;52.786;6.892;2023-12-20T08:25:25;18.90;;;6.45;;
52668;SDS011;74205;52.786;6.892;2023-12-20T08:28:47;22.58;;;6.90;;
52668;SDS011;74205;52.786;6.892;2023-12-20T08:32:08;19.98;;;5.68;;
52668;SDS011;74205;52.786;6.892;2023-12-20T08:35:28;19.92;;;7.00;;
52668;SDS011;74205;52.786;6.892;2023-12-20T08:38:49;18.08;;;7.57;;
52668;SDS011;74205;52.786;6.892;2023-12-20T08:42:10;28.08;;;7.22;;
52668;SDS011;74205;52.786;6.892;2023-12-20T08:45:31;21.42;;;6.55;;
52668;SDS011;74205;52.786;6.892;2023-12-20T08:48:51;20.15;;;5.78;;
52668;SDS011;74205;52.786;6.892;2023-12-20T08:52:12;17.15;;;5.28;;
52668;SDS011;74205;52.786;6.892;2023-12-20T08:55:32;24.48;;;6.68;;
52668;SDS011;74205;52.786;6.892;2023-12-20T08:58:53;20.15;;;5.78;;
52668;SDS011;74205;52.786;6.892;2023-12-20T09:02:13;16.88;;;4.88;;
52668;SDS011;74205;52.786;6.892;2023-12-20T09:05:34;17.02;;;5.68;;
52668;SDS011;74205;52.786;6.892;2023-12-20T09:08:55;23.98;;;7.57;;
52668;SDS011;74205;52.786;6.892;2023-12-20T09:12:17;17.02;;;5.90;;
52668;SDS011;74205;52.786;6.892;2023-12-20T09:18:59;20.98;;;5.65;;
52668;SDS011;74205;52.786;6.892;2023-12-20T09:22:20;18.98;;;5.35;;
52668;SDS011;74205;52.786;6.892;2023-12-20T09:25:40;20.83;;;5.50;;
52668;SDS011;74205;52.786;6.892;2023-12-20T09:29:01;23.27;;;5.90;;
52668;SDS011;74205;52.786;6.892;2023-12-20T09:32:21;15.75;;;5.22;;
52668;SDS011;74205;52.786;6.892;2023-12-20T09:35:42;17.10;;;6.55;;
52668;SDS011;74205;52.786;6.892;2023-12-20T09:39:03;30.27;;;5.60;;
52668;SDS011;74205;52.786;6.892;2023-12-20T09:42:24;18.00;;;6.28;;
52668;SDS011;74205;52.786;6.892;2023-12-20T09:45:52;18.25;;;5.13;;
52668;SDS011;74205;52.786;6.892;2023-12-20T09:49:13;15.05;;;4.38;;
52668;SDS011;74205;52.786;6.892;2023-12-20T09:52:36;22.67;;;5.55;;
52668;SDS011;74205;52.786;6.892;2023-12-20T09:55:58;21.30;;;4.75;;
52668;SDS011;74205;52.786;6.892;2023-12-20T09:59:20;16.15;;;5.85;;
52668;SDS011;74205;52.786;6.892;2023-12-20T10:02:45;20.58;;;4.32;;
52668;SDS011;74205;52.786;6.892;2023-12-20T10:06:10;11.07;;;3.83;;
52668;SDS011;74205;52.786;6.892;2023-12-20T10:09:32;7.93;;;4.18;;
52668;SDS011;74205;52.786;6.892;2023-12-20T10:13:06;9.27;;;2.45;;
52668;SDS011;74205;52.786;6.892;2023-12-20T10:16:28;8.27;;;2.15;;
52668;SDS011;74205;52.786;6.892;2023-12-20T10:19:49;4.15;;;2.13;;
52668;SDS011;74205;52.786;6.892;2023-12-20T10:23:10;6.68;;;2.33;;
52668;SDS011;74205;52.786;6.892;2023-12-20T10:26:31;5.55;;;1.98;;
52668;SDS011;74205;52.786;6.892;2023-12-20T10:29:51;9.35;;;2.35;;
52668;SDS011;74205;52.786;6.892;2023-12-20T10:33:12;7.60;;;2.22;;
52668;SDS011;74205;52.786;6.892;2023-12-20T10:36:33;5.07;;;2.17;;
52668;SDS011;74205;52.786;6.892;2023-12-20T10:39:54;7.40;;;2.88;;
52668;SDS011;74205;52.786;6.892;2023-12-20T10:43:18;12.18;;;5.43;;
52668;SDS011;74205;52.786;6.892;2023-12-20T10:46:40;13.88;;;3.67;;
52668;SDS011;74205;52.786;6.892;2023-12-20T10:50:07;12.40;;;2.47;;
52668;SDS011;74205;52.786;6.892;2023-12-20T10:53:29;8.20;;;2.53;;
52668;SDS011;74205;52.786;6.892;2023-12-20T10:56:50;6.97;;;2.70;;
52668;SDS011;74205;52.786;6.892;2023-12-20T11:00:12;9.60;;;4.32;;
52668;SDS011;74205;52.786;6.892;2023-12-20T11:03:36;6.95;;;3.00;;
52668;SDS011;74205;52.786;6.892;2023-12-20T11:07:02;5.90;;;2.80;;
52668;SDS011;74205;52.786;6.892;2023-12-20T11:14:14;7.25;;;2.70;;
52668;SDS011;74205;52.786;6.892;2023-12-20T11:17:39;6.60;;;3.03;;
52668;SDS011;74205;52.786;6.892;2023-12-20T11:21:06;10.73;;;3.38;;
52668;SDS011;74205;52.786;6.892;2023-12-20T11:24:27;9.07;;;2.90;;
52668;SDS011;74205;52.786;6.892;2023-12-20T11:28:06;9.13;;;3.17;;
52668;SDS011;74205;52.786;6.892;2023-12-20T11:31:29;12.55;;;3.65;;
52668;SDS011;74205;52.786;6.892;2023-12-20T11:35:01;8.20;;;2.80;;
52668;SDS011;74205;52.786;6.892;2023-12-20T11:38:37;13.60;;;3.55;;
52668;SDS011;74205;52.786;6.892;2023-12-20T11:42:03;11.05;;;3.67;;
52668;SDS011;74205;52.786;6.892;2023-12-20T11:45:25;7.53;;;3.58;;
52668;SDS011;74205;52.786;6.892;2023-12-20T11:48:47;13.77;;;3.70;;
52668;SDS011;74205;52.786;6.892;2023-12-20T11:52:11;12.00;;;4.53;;
52668;SDS011;74205;52.786;6.892;2023-12-20T11:55:32;8.50;;;3.80;;
52668;SDS011;74205;52.786;6.892;2023-12-20T11:58:54;8.35;;;2.88;;
52668;SDS011;74205;52.786;6.892;2023-12-20T12:02:16;9.27;;;3.63;;
52668;SDS011;74205;52.786;6.892;2023-12-20T12:05:36;7.28;;;3.10;;
52668;SDS011;74205;52.786;6.892;2023-12-20T12:08:57;9.40;;;3.17;;
52668;SDS011;74205;52.786;6.892;2023-12-20T12:12:18;14.45;;;4.65;;
52668;SDS011;74205;52.786;6.892;2023-12-20T12:15:39;9.50;;;3.45;;
52668;SDS011;74205;52.786;6.892;2023-12-20T12:19:02;9.20;;;4.28;;
52668;SDS011;74205;52.786;6.892;2023-12-20T12:22:22;10.23;;;3.17;;
52668;SDS011;74205;52.786;6.892;2023-12-20T12:25:46;13.00;;;4.15;;
52668;SDS011;74205;52.786;6.892;2023-12-20T12:29:08;11.20;;;3.92;;
52668;SDS011;74205;52.786;6.892;2023-12-20T12:32:29;15.27;;;3.33;;
52668;SDS011;74205;52.786;6.892;2023-12-20T12:35:50;13.65;;;3.92;;
52668;SDS011;74205;52.786;6.892;2023-12-20T12:39:14;11.82;;;3.05;;
52668;SDS011;74205;52.786;6.892;2023-12-20T12:42:36;11.63;;;4.15;;
52668;SDS011;74205;52.786;6.892;2023-12-20T12:45:59;11.55;;;4.55;;
52668;SDS011;74205;52.786;6.892;2023-12-20T12:49:20;9.60;;;3.70;;
52668;SDS011;74205;52.786;6.892;2023-12-20T12:52:41;9.70;;;4.15;;
52668;SDS011;74205;52.786;6.892;2023-12-20T12:56:02;10.63;;;3.88;;
52668;SDS011;74205;52.786;6.892;2023-12-20T12:59:23;10.68;;;2.88;;
52668;SDS011;74205;52.786;6.892;2023-12-20T13:02:44;13.05;;;2.85;;
52668;SDS011;74205;52.786;6.892;2023-12-20T13:06:04;13.15;;;2.67;;
52668;SDS011;74205;52.786;6.892;2023-12-20T13:09:26;6.78;;;2.95;;
52668;SDS011;74205;52.786;6.892;2023-12-20T13:12:46;10.63;;;2.83;;
52668;SDS011;74205;52.786;6.892;2023-12-20T13:16:07;7.85;;;2.78;;
52668;SDS011;74205;52.786;6.892;2023-12-20T13:19:28;7.20;;;3.17;;
52668;SDS011;74205;52.786;6.892;2023-12-20T13:22:48;10.45;;;3.33;;
52668;SDS011;74205;52.786;6.892;2023-12-20T13:26:09;10.20;;;2.30;;
52668;SDS011;74205;52.786;6.892;2023-12-20T13:29:29;9.45;;;2.40;;
52668;SDS011;74205;52.786;6.892;2023-12-20T13:32:50;7.20;;;2.85;;
52668;SDS011;74205;52.786;6.892;2023-12-20T13:36:10;10.68;;;4.60;;
52668;SDS011;74205;52.786;6.892;2023-12-20T13:39:31;12.00;;;4.22;;
52668;SDS011;74205;52.786;6.892;2023-12-20T13:42:52;6.75;;;2.47;;
52668;SDS011;74205;52.786;6.892;2023-12-20T13:46:14;7.00;;;3.00;;
52668;SDS011;74205;52.786;6.892;2023-12-20T13:49:35;9.98;;;3.00;;
52668;SDS011;74205;52.786;6.892;2023-12-20T13:52:55;11.82;;;2.83;;
52668;SDS011;74205;52.786;6.892;2023-12-20T13:56:16;12.57;;;4.50;;
52668;SDS011;74205;52.786;6.892;2023-12-20T13:59:37;10.40;;;2.60;;
52668;SDS011;74205;52.786;6.892;2023-12-20T14:02:57;7.22;;;3.70;;
52668;SDS011;74205;52.786;6.892;2023-12-20T14:06:18;9.82;;;3.15;;
52668;SDS011;74205;52.786;6.892;2023-12-20T14:09:39;10.77;;;2.88;;
52668;SDS011;74205;52.786;6.892;2023-12-20T14:13:05;11.40;;;2.85;;
52668;SDS011;74205;52.786;6.892;2023-12-20T14:16:25;7.25;;;2.72;;
52668;SDS011;74205;52.786;6.892;2023-12-20T14:19:46;10.55;;;2.85;;
52668;SDS011;74205;52.786;6.892;2023-12-20T14:23:06;9.73;;;2.67;;
52668;SDS011;74205;52.786;6.892;2023-12-20T14:26:27;6.70;;;2.60;;
52668;SDS011;74205;52.786;6.892;2023-12-20T14:29:48;11.75;;;3.30;;
52668;SDS011;74205;52.786;6.892;2023-12-20T14:33:08;9.45;;;3.35;;
52668;SDS011;74205;52.786;6.892;2023-12-20T14:36:29;15.57;;;3.58;;
52668;SDS011;74205;52.786;6.892;2023-12-20T14:39:50;9.88;;;3.30;;
52668;SDS011;74205;52.786;6.892;2023-12-20T14:43:11;13.20;;;3.00;;
52668;SDS011;74205;52.786;6.892;2023-12-20T14:46:32;10.43;;;3.97;;
52668;SDS011;74205;52.786;6.892;2023-12-20T14:49:52;8.73;;;3.42;;
52668;SDS011;74205;52.786;6.892;2023-12-20T14:53:13;8.55;;;4.15;;
52668;SDS011;74205;52.786;6.892;2023-12-20T14:56:35;8.13;;;3.60;;
52668;SDS011;74205;52.786;6.892;2023-12-20T14:59:56;10.32;;;3.35;;
52668;SDS011;74205;52.786;6.892;2023-12-20T15:03:16;8.30;;;3.78;;
52668;SDS011;74205;52.786;6.892;2023-12-20T15:06:38;5.28;;;2.95;;
52668;SDS011;74205;52.786;6.892;2023-12-20T15:09:59;9.43;;;3.50;;
52668;SDS011;74205;52.786;6.892;2023-12-20T15:13:19;8.68;;;2.65;;
52668;SDS011;74205;52.786;6.892;2023-12-20T15:16:40;6.63;;;2.80;;
52668;SDS011;74205;52.786;6.892;2023-12-20T15:20:00;10.85;;;4.72;;
52668;SDS011;74205;52.786;6.892;2023-12-20T15:23:21;11.00;;;3.03;;
52668;SDS011;74205;52.786;6.892;2023-12-20T15:26:45;9.07;;;3.47;;
52668;SDS011;74205;52.786;6.892;2023-12-20T15:30:07;10.00;;;3.75;;
52668;SDS011;74205;52.786;6.892;2023-12-20T15:33:29;6.72;;;3.03;;
52668;SDS011;74205;52.786;6.892;2023-12-20T15:36:50;9.32;;;3.67;;
52668;SDS011;74205;52.786;6.892;2023-12-20T15:40:10;8.27;;;4.25;;
52668;SDS011;74205;52.786;6.892;2023-12-20T15:43:32;8.25;;;3.13;;
52668;SDS011;74205;52.786;6.892;2023-12-20T15:46:52;10.75;;;3.90;;
52668;SDS011;74205;52.786;6.892;2023-12-20T15:50:13;13.48;;;4.18;;
52668;SDS011;74205;52.786;6.892;2023-12-20T15:53:33;16.45;;;6.95;;
52668;SDS011;74205;52.786;6.892;2023-12-20T15:56:54;22.08;;;7.88;;
52668;SDS011;74205;52.786;6.892;2023-12-20T16:00:15;13.38;;;5.53;;
52668;SDS011;74205;52.786;6.892;2023-12-20T16:03:36;22.40;;;8.90;;
52668;SDS011;74205;52.786;6.892;2023-12-20T16:06:57;16.42;;;5.55;;
52668;SDS011;74205;52.786;6.892;2023-12-20T16:10:17;17.33;;;6.13;;
52668;SDS011;74205;52.786;6.892;2023-12-20T16:13:38;22.55;;;6.60;;
52668;SDS011;74205;52.786;6.892;2023-12-20T16:16:58;17.15;;;6.68;;
52668;SDS011;74205;52.786;6.892;2023-12-20T16:20:20;21.65;;;6.45;;
52668;SDS011;74205;52.786;6.892;2023-12-20T16:23:40;19.45;;;7.32;;
52668;SDS011;74205;52.786;6.892;2023-12-20T16:27:01;19.50;;;5.53;;
52668;SDS011;74205;52.786;6.892;2023-12-20T16:30:21;21.55;;;7.07;;
52668;SDS011;74205;52.786;6.892;2023-12-20T16:33:42;20.17;;;6.18;;
52668;SDS011;74205;52.786;6.892;2023-12-20T16:37:02;14.13;;;6.00;;
52668;SDS011;74205;52.786;6.892;2023-12-20T16:40:23;19.75;;;6.32;;
52668;SDS011;74205;52.786;6.892;2023-12-20T16:43:44;21.45;;;5.50;;
52668;SDS011;74205;52.786;6.892;2023-12-20T16:47:05;24.75;;;7.70;;
52668;SDS011;74205;52.786;6.892;2023-12-20T16:50:26;15.82;;;6.75;;
52668;SDS011;74205;52.786;6.892;2023-12-20T16:53:47;21.23;;;6.20;;
52668;SDS011;74205;52.786;6.892;2023-12-20T16:57:08;17.88;;;6.47;;
52668;SDS011;74205;52.786;6.892;2023-12-20T17:00:28;19.88;;;7.28;;
52668;SDS011;74205;52.786;6.892;2023-12-20T17:03:49;21.73;;;6.45;;
52668;SDS011;74205;52.786;6.892;2023-12-20T17:07:10;18.83;;;5.82;;
52668;SDS011;74205;52.786;6.892;2023-12-20T17:10:31;24.65;;;7.85;;
52668;SDS011;74205;52.786;6.892;2023-12-20T17:13:52;18.42;;;5.93;;
52668;SDS011;74205;52.786;6.892;2023-12-20T17:17:12;16.20;;;6.43;;
52668;SDS011;74205;52.786;6.892;2023-12-20T17:20:33;18.05;;;7.03;;
52668;SDS011;74205;52.786;6.892;2023-12-20T17:23:53;28.77;;;7.65;;
52668;SDS011;74205;52.786;6.892;2023-12-20T17:27:14;23.20;;;6.57;;
52668;SDS011;74205;52.786;6.892;2023-12-20T17:30:35;22.60;;;8.25;;
52668;SDS011;74205;52.786;6.892;2023-12-20T17:33:55;25.65;;;7.60;;
52668;SDS011;74205;52.786;6.892;2023-12-20T17:37:16;26.80;;;7.50;;
52668;SDS011;74205;52.786;6.892;2023-12-20T17:40:36;23.88;;;7.45;;
52668;SDS011;74205;52.786;6.892;2023-12-20T17:43:59;32.30;;;11.27;;
52668;SDS011;74205;52.786;6.892;2023-12-20T17:47:20;28.98;;;7.78;;
52668;SDS011;74205;52.786;6.892;2023-12-20T17:50:41;27.25;;;8.40;;
52668;SDS011;74205;52.786;6.892;2023-12-20T17:54:02;24.58;;;8.38;;
52668;SDS011;74205;52.786;6.892;2023-12-20T17:57:24;26.85;;;8.80;;
52668;SDS011;74205;52.786;6.892;2023-12-20T18:00:45;20.85;;;8.85;;
52668;SDS011;74205;52.786;6.892;2023-12-20T18:04:06;19.05;;;9.80;;
52668;SDS011;74205;52.786;6.892;2023-12-20T18:07:26;20.00;;;9.27;;
52668;SDS011;74205;52.786;6.892;2023-12-20T18:10:47;24.63;;;9.48;;
52668;SDS011;74205;52.786;6.892;2023-12-20T18:14:08;19.60;;;8.88;;
52668;SDS011;74205;52.786;6.892;2023-12-20T18:17:30;18.57;;;7.97;;
52668;SDS011;74205;52.786;6.892;2023-12-20T18:20:51;19.70;;;8.65;;
52668;SDS011;74205;52.786;6.892;2023-12-20T18:24:13;24.20;;;8.60;;
52668;SDS011;74205;52.786;6.892;2023-12-20T18:27:34;12.52;;;6.88;;
52668;SDS011;74205;52.786;6.892;2023-12-20T18:30:55;12.25;;;6.15;;
52668;SDS011;74205;52.786;6.892;2023-12-20T18:34:15;14.18;;;6.55;;
52668;SDS011;74205;52.786;6.892;2023-12-20T18:37:36;12.15;;;6.32;;
52668;SDS011;74205;52.786;6.892;2023-12-20T18:40:59;12.23;;;5.78;;
52668;SDS011;74205;52.786;6.892;2023-12-20T18:44:20;15.25;;;6.82;;
52668;SDS011;74205;52.786;6.892;2023-12-20T18:47:40;11.82;;;6.40;;
52668;SDS011;74205;52.786;6.892;2023-12-20T18:51:01;8.07;;;5.50;;
52668;SDS011;74205;52.786;6.892;2023-12-20T18:54:21;9.95;;;5.90;;
52668;SDS011;74205;52.786;6.892;2023-12-20T18:57:42;15.95;;;10.38;;
52668;SDS011;74205;52.786;6.892;2023-12-20T19:01:03;9.23;;;4.88;;
52668;SDS011;74205;52.786;6.892;2023-12-20T19:04:24;7.57;;;4.80;;
52668;SDS011;74205;52.786;6.892;2023-12-20T19:07:44;8.02;;;4.80;;
52668;SDS011;74205;52.786;6.892;2023-12-20T19:11:05;7.30;;;5.30;;
52668;SDS011;74205;52.786;6.892;2023-12-20T19:14:26;6.10;;;4.15;;
52668;SDS011;74205;52.786;6.892;2023-12-20T19:17:46;5.68;;;4.22;;
52668;SDS011;74205;52.786;6.892;2023-12-20T19:21:07;7.55;;;3.30;;
52668;SDS011;74205;52.786;6.892;2023-12-20T19:24:28;5.47;;;3.53;;
52668;SDS011;74205;52.786;6.892;2023-12-20T19:27:49;4.63;;;3.42;;
52668;SDS011;74205;52.786;6.892;2023-12-20T19:31:09;4.80;;;3.22;;
52668;SDS011;74205;52.786;6.892;2023-12-20T19:34:31;5.40;;;3.58;;
52668;SDS011;74205;52.786;6.892;2023-12-20T19:37:52;5.63;;;3.60;;
52668;SDS011;74205;52.786;6.892;2023-12-20T19:41:13;5.28;;;3.80;;
52668;SDS011;74205;52.786;6.892;2023-12-20T19:44:33;4.43;;;3.42;;
52668;SDS011;74205;52.786;6.892;2023-12-20T19:47:54;5.80;;;3.38;;
52668;SDS011;74205;52.786;6.892;2023-12-20T19:51:14;7.53;;;3.33;;
52668;SDS011;74205;52.786;6.892;2023-12-20T19:54:35;4.88;;;2.88;;
52668;SDS011;74205;52.786;6.892;2023-12-20T19:57:56;7.13;;;2.95;;
52668;SDS011;74205;52.786;6.892;2023-12-20T20:01:16;4.95;;;2.67;;
52668;SDS011;74205;52.786;6.892;2023-12-20T20:04:37;5.22;;;3.00;;